sensor_id;sensor_type;location;lat;lon;timestamp;P1;durP1;ratioP1;P2;durP2;ratioP2
12800;SDS011;6464;42.494;27.470;2023-08-08T04:01:51;6.70;;;6.50;;
12800;SDS011;6464;42.494;27.470;2023-08-08T04:04:19;6.72;;;6.53;;
12800;SDS011;6464;42.494;27.470;2023-08-08T04:06:46;6.72;;;6.53;;
12800;SDS011;6464;42.494;27.470;2023-08-08T04:09:13;6.90;;;6.70;;
12800;SDS011;6464;42.494;27.470;2023-08-08T04:11:41;6.50;;;6.30;;
12800;SDS011;6464;42.494;27.470;2023-08-08T04:14:11;6.45;;;6.25;;
12800;SDS011;6464;42.494;27.470;2023-08-08T04:16:38;6.70;;;6.50;;
12800;SDS011;6464;42.494;27.470;2023-08-08T04:19:09;6.70;;;6.50;;
12800;SDS011;6464;42.494;27.470;2023-08-08T04:21:36;6.60;;;6.40;;
12800;SDS011;6464;42.494;27.470;2023-08-08T04:24:06;6.60;;;6.40;;
12800;SDS011;6464;42.494;27.470;2023-08-08T04:26:33;6.60;;;6.40;;
12800;SDS011;6464;42.494;27.470;2023-08-08T04:29:03;6.60;;;6.40;;
12800;SDS011;6464;42.494;27.470;2023-08-08T04:31:40;6.70;;;6.50;;
12800;SDS011;6464;42.494;27.470;2023-08-08T04:34:12;6.63;;;6.43;;
12800;SDS011;6464;42.494;27.470;2023-08-08T04:36:39;6.60;;;6.40;;
12800;SDS011;6464;42.494;27.470;2023-08-08T04:39:06;6.70;;;6.50;;
12800;SDS011;6464;42.494;27.470;2023-08-08T04:41:33;6.57;;;6.38;;
12800;SDS011;6464;42.494;27.470;2023-08-08T04:44:00;6.30;;;6.10;;
12800;SDS011;6464;42.494;27.470;2023-08-08T04:46:27;6.70;;;6.50;;
12800;SDS011;6464;42.494;27.470;2023-08-08T04:48:54;6.68;;;6.47;;
12800;SDS011;6464;42.494;27.470;2023-08-08T04:51:22;6.70;;;6.50;;
12800;SDS011;6464;42.494;27.470;2023-08-08T04:53:49;6.80;;;6.60;;
12800;SDS011;6464;42.494;27.470;2023-08-08T04:56:16;6.80;;;6.60;;
12800;SDS011;6464;42.494;27.470;2023-08-08T04:58:43;6.80;;;6.60;;
12800;SDS011;6464;42.494;27.470;2023-08-08T05:01:11;7.00;;;6.80;;
12800;SDS011;6464;42.494;27.470;2023-08-08T05:03:40;7.10;;;6.90;;
12800;SDS011;6464;42.494;27.470;2023-08-08T05:06:08;7.00;;;6.80;;
12800;SDS011;6464;42.494;27.470;2023-08-08T05:08:36;6.65;;;6.45;;
12800;SDS011;6464;42.494;27.470;2023-08-08T05:11:03;6.82;;;6.63;;
12800;SDS011;6464;42.494;27.470;2023-08-08T05:13:30;6.70;;;6.50;;
12800;SDS011;6464;42.494;27.470;2023-08-08T05:15:57;6.70;;;6.50;;
12800;SDS011;6464;42.494;27.470;2023-08-08T05:18:24;6.65;;;6.45;;
12800;SDS011;6464;42.494;27.470;2023-08-08T05:20:51;6.85;;;6.65;;
12800;SDS011;6464;42.494;27.470;2023-08-08T05:23:18;6.63;;;6.43;;
12800;SDS011;6464;42.494;27.470;2023-08-08T05:25:47;6.50;;;6.30;;
12800;SDS011;6464;42.494;27.470;2023-08-08T05:28:13;6.40;;;6.20;;
12800;SDS011;6464;42.494;27.470;2023-08-08T05:30:40;6.60;;;6.40;;
12800;SDS011;6464;42.494;27.470;2023-08-08T05:33:07;6.65;;;6.45;;
12800;SDS011;6464;42.494;27.470;2023-08-08T05:35:34;6.80;;;6.60;;
12800;SDS011;6464;42.494;27.470;2023-08-08T05:38:02;6.63;;;6.43;;
12800;SDS011;6464;42.494;27.470;2023-08-08T05:40:29;6.60;;;6.40;;
12800;SDS011;6464;42.494;27.470;2023-08-08T05:42:57;6.85;;;6.65;;
12800;SDS011;6464;42.494;27.470;2023-08-08T05:45:24;7.00;;;6.80;;
12800;SDS011;6464;42.494;27.470;2023-08-08T05:47:51;6.90;;;6.70;;
12800;SDS011;6464;42.494;27.470;2023-08-08T05:50:18;6.90;;;6.70;;
12800;SDS011;6464;42.494;27.470;2023-08-08T05:52:45;6.78;;;6.57;;
12800;SDS011;6464;42.494;27.470;2023-08-08T05:55:12;6.85;;;6.65;;
12800;SDS011;6464;42.494;27.470;2023-08-08T05:57:39;6.80;;;6.60;;
12800;SDS011;6464;42.494;27.470;2023-08-08T06:00:08;6.90;;;6.70;;
12800;SDS011;6464;42.494;27.470;2023-08-08T06:02:36;6.63;;;6.43;;
12800;SDS011;6464;42.494;27.470;2023-08-08T06:05:03;6.90;;;6.70;;
12800;SDS011;6464;42.494;27.470;2023-08-08T06:07:31;6.50;;;6.30;;
12800;SDS011;6464;42.494;27.470;2023-08-08T06:09:58;6.70;;;6.50;;
12800;SDS011;6464;42.494;27.470;2023-08-08T06:12:25;6.60;;;6.40;;
12800;SDS011;6464;42.494;27.470;2023-08-08T06:14:52;6.80;;;6.60;;
12800;SDS011;6464;42.494;27.470;2023-08-08T06:17:20;6.70;;;6.50;;
12800;SDS011;6464;42.494;27.470;2023-08-08T06:19:48;6.70;;;6.50;;
12800;SDS011;6464;42.494;27.470;2023-08-08T06:22:16;7.00;;;6.80;;
12800;SDS011;6464;42.494;27.470;2023-08-08T06:24:43;6.70;;;6.50;;
12800;SDS011;6464;42.494;27.470;2023-08-08T06:27:10;6.70;;;6.50;;
12800;SDS011;6464;42.494;27.470;2023-08-08T06:29:39;6.30;;;6.10;;
12800;SDS011;6464;42.494;27.470;2023-08-08T06:32:06;6.50;;;6.30;;
12800;SDS011;6464;42.494;27.470;2023-08-08T06:34:34;6.40;;;6.20;;
12800;SDS011;6464;42.494;27.470;2023-08-08T06:37:01;6.70;;;6.50;;
12800;SDS011;6464;42.494;27.470;2023-08-08T06:39:28;7.00;;;6.80;;
12800;SDS011;6464;42.494;27.470;2023-08-08T06:41:56;6.70;;;6.50;;
12800;SDS011;6464;42.494;27.470;2023-08-08T06:44:23;6.88;;;6.68;;
12800;SDS011;6464;42.494;27.470;2023-08-08T06:46:50;6.80;;;6.60;;
12800;SDS011;6464;42.494;27.470;2023-08-08T06:49:17;6.70;;;6.50;;
12800;SDS011;6464;42.494;27.470;2023-08-08T06:51:45;6.80;;;6.60;;
12800;SDS011;6464;42.494;27.470;2023-08-08T06:54:12;6.50;;;6.30;;
12800;SDS011;6464;42.494;27.470;2023-08-08T06:56:39;6.80;;;6.60;;
12800;SDS011;6464;42.494;27.470;2023-08-08T06:59:05;6.30;;;6.10;;
12800;SDS011;6464;42.494;27.470;2023-08-08T07:01:32;6.40;;;6.20;;
12800;SDS011;6464;42.494;27.470;2023-08-08T07:03:59;6.60;;;6.40;;
12800;SDS011;6464;42.494;27.470;2023-08-08T07:06:26;6.90;;;6.70;;
12800;SDS011;6464;42.494;27.470;2023-08-08T07:08:54;6.90;;;6.70;;
12800;SDS011;6464;42.494;27.470;2023-08-08T07:11:21;7.10;;;6.90;;
12800;SDS011;6464;42.494;27.470;2023-08-08T07:13:50;7.20;;;7.00;;
12800;SDS011;6464;42.494;27.470;2023-08-08T07:16:16;7.13;;;6.93;;
12800;SDS011;6464;42.494;27.470;2023-08-08T07:18:43;7.50;;;7.30;;
12800;SDS011;6464;42.494;27.470;2023-08-08T07:21:10;7.40;;;7.20;;
12800;SDS011;6464;42.494;27.470;2023-08-08T07:23:37;7.30;;;7.10;;
12800;SDS011;6464;42.494;27.470;2023-08-08T07:26:05;7.10;;;6.90;;
12800;SDS011;6464;42.494;27.470;2023-08-08T07:28:32;7.00;;;6.80;;
12800;SDS011;6464;42.494;27.470;2023-08-08T07:30:59;7.40;;;7.20;;
12800;SDS011;6464;42.494;27.470;2023-08-08T07:33:26;7.20;;;7.00;;
12800;SDS011;6464;42.494;27.470;2023-08-08T07:35:53;7.20;;;7.00;;
12800;SDS011;6464;42.494;27.470;2023-08-08T07:38:20;7.07;;;6.88;;
12800;SDS011;6464;42.494;27.470;2023-08-08T07:40:47;7.10;;;6.90;;
12800;SDS011;6464;42.494;27.470;2023-08-08T07:43:15;6.90;;;6.70;;
12800;SDS011;6464;42.494;27.470;2023-08-08T07:45:42;7.00;;;6.80;;
12800;SDS011;6464;42.494;27.470;2023-08-08T07:48:09;7.00;;;6.80;;
12800;SDS011;6464;42.494;27.470;2023-08-08T07:50:36;6.80;;;6.60;;
12800;SDS011;6464;42.494;27.470;2023-08-08T07:53:03;7.05;;;6.85;;
12800;SDS011;6464;42.494;27.470;2023-08-08T07:55:30;6.90;;;6.70;;
12800;SDS011;6464;42.494;27.470;2023-08-08T07:57:57;6.72;;;6.53;;
12800;SDS011;6464;42.494;27.470;2023-08-08T08:00:40;6.97;;;6.77;;
12800;SDS011;6464;42.494;27.470;2023-08-08T08:03:07;6.95;;;6.75;;
12800;SDS011;6464;42.494;27.470;2023-08-08T08:05:34;7.05;;;6.85;;
12800;SDS011;6464;42.494;27.470;2023-08-08T08:08:02;7.20;;;7.00;;
12800;SDS011;6464;42.494;27.470;2023-08-08T08:10:30;7.20;;;7.00;;
12800;SDS011;6464;42.494;27.470;2023-08-08T08:12:57;7.20;;;7.00;;
12800;SDS011;6464;42.494;27.470;2023-08-08T08:15:24;7.10;;;6.90;;
12800;SDS011;6464;42.494;27.470;2023-08-08T08:17:52;7.13;;;6.93;;
12800;SDS011;6464;42.494;27.470;2023-08-08T08:20:19;7.10;;;6.90;;
12800;SDS011;6464;42.494;27.470;2023-08-08T08:22:47;7.15;;;6.95;;
12800;SDS011;6464;42.494;27.470;2023-08-08T08:25:14;7.60;;;7.40;;
12800;SDS011;6464;42.494;27.470;2023-08-08T08:27:41;7.40;;;7.20;;
12800;SDS011;6464;42.494;27.470;2023-08-08T08:30:08;7.28;;;7.07;;
12800;SDS011;6464;42.494;27.470;2023-08-08T08:32:36;7.35;;;7.15;;
12800;SDS011;6464;42.494;27.470;2023-08-08T08:35:06;7.30;;;7.10;;
12800;SDS011;6464;42.494;27.470;2023-08-08T08:37:33;7.45;;;7.25;;
12800;SDS011;6464;42.494;27.470;2023-08-08T08:40:01;7.65;;;7.45;;
12800;SDS011;6464;42.494;27.470;2023-08-08T08:42:29;7.43;;;7.22;;
12800;SDS011;6464;42.494;27.470;2023-08-08T08:44:58;7.18;;;6.97;;
12800;SDS011;6464;42.494;27.470;2023-08-08T08:47:25;7.00;;;6.80;;
12800;SDS011;6464;42.494;27.470;2023-08-08T08:49:56;7.55;;;7.35;;
12800;SDS011;6464;42.494;27.470;2023-08-08T08:52:25;7.50;;;7.30;;
12800;SDS011;6464;42.494;27.470;2023-08-08T08:54:52;8.50;;;8.20;;
12800;SDS011;6464;42.494;27.470;2023-08-08T08:57:20;9.40;;;9.10;;
12800;SDS011;6464;42.494;27.470;2023-08-08T08:59:48;8.10;;;7.90;;
12800;SDS011;6464;42.494;27.470;2023-08-08T09:02:15;7.95;;;7.75;;
12800;SDS011;6464;42.494;27.470;2023-08-08T09:04:43;8.32;;;8.05;;
12800;SDS011;6464;42.494;27.470;2023-08-08T09:07:12;8.70;;;8.40;;
12800;SDS011;6464;42.494;27.470;2023-08-08T09:09:40;8.13;;;7.93;;
12800;SDS011;6464;42.494;27.470;2023-08-08T09:12:09;8.43;;;8.13;;
12800;SDS011;6464;42.494;27.470;2023-08-08T09:14:39;8.45;;;8.15;;
12800;SDS011;6464;42.494;27.470;2023-08-08T09:17:12;8.07;;;7.88;;
12800;SDS011;6464;42.494;27.470;2023-08-08T09:19:41;8.13;;;7.93;;
12800;SDS011;6464;42.494;27.470;2023-08-08T09:22:09;8.15;;;7.95;;
12800;SDS011;6464;42.494;27.470;2023-08-08T09:24:37;8.70;;;8.40;;
12800;SDS011;6464;42.494;27.470;2023-08-08T09:27:07;8.57;;;8.27;;
12800;SDS011;6464;42.494;27.470;2023-08-08T09:29:35;7.70;;;7.50;;
12800;SDS011;6464;42.494;27.470;2023-08-08T09:32:02;7.40;;;7.20;;
12800;SDS011;6464;42.494;27.470;2023-08-08T09:34:30;7.60;;;7.40;;
12800;SDS011;6464;42.494;27.470;2023-08-08T09:36:57;7.45;;;7.25;;
12800;SDS011;6464;42.494;27.470;2023-08-08T09:39:25;7.05;;;6.85;;
12800;SDS011;6464;42.494;27.470;2023-08-08T09:41:52;7.60;;;7.40;;
12800;SDS011;6464;42.494;27.470;2023-08-08T09:44:24;7.78;;;7.57;;
12800;SDS011;6464;42.494;27.470;2023-08-08T09:46:54;7.80;;;7.60;;
12800;SDS011;6464;42.494;27.470;2023-08-08T09:49:21;7.60;;;7.40;;
12800;SDS011;6464;42.494;27.470;2023-08-08T09:51:49;7.40;;;7.20;;
12800;SDS011;6464;42.494;27.470;2023-08-08T09:54:16;7.50;;;7.30;;
12800;SDS011;6464;42.494;27.470;2023-08-08T09:56:43;7.32;;;7.13;;
12800;SDS011;6464;42.494;27.470;2023-08-08T09:59:10;7.40;;;7.20;;
12800;SDS011;6464;42.494;27.470;2023-08-08T10:01:40;7.60;;;7.40;;
12800;SDS011;6464;42.494;27.470;2023-08-08T10:04:08;7.55;;;7.35;;
12800;SDS011;6464;42.494;27.470;2023-08-08T10:06:36;7.65;;;7.45;;
12800;SDS011;6464;42.494;27.470;2023-08-08T10:09:03;7.40;;;7.20;;
12800;SDS011;6464;42.494;27.470;2023-08-08T10:11:31;7.40;;;7.20;;
12800;SDS011;6464;42.494;27.470;2023-08-08T10:14:00;7.72;;;7.53;;
12800;SDS011;6464;42.494;27.470;2023-08-08T10:16:31;7.68;;;7.47;;
12800;SDS011;6464;42.494;27.470;2023-08-08T10:19:00;7.40;;;7.20;;
12800;SDS011;6464;42.494;27.470;2023-08-08T10:21:32;7.93;;;7.72;;
12800;SDS011;6464;42.494;27.470;2023-08-08T10:24:00;7.25;;;7.05;;
12800;SDS011;6464;42.494;27.470;2023-08-08T10:26:28;7.68;;;7.47;;
12800;SDS011;6464;42.494;27.470;2023-08-08T10:28:56;7.60;;;7.40;;
12800;SDS011;6464;42.494;27.470;2023-08-08T10:31:24;7.97;;;7.78;;
12800;SDS011;6464;42.494;27.470;2023-08-08T10:34:01;8.00;;;7.80;;
12800;SDS011;6464;42.494;27.470;2023-08-08T10:39:21;7.60;;;7.40;;
12800;SDS011;6464;42.494;27.470;2023-08-08T10:41:48;7.60;;;7.40;;
12800;SDS011;6464;42.494;27.470;2023-08-08T10:44:22;7.32;;;7.13;;
12800;SDS011;6464;42.494;27.470;2023-08-08T10:46:51;7.68;;;7.47;;
12800;SDS011;6464;42.494;27.470;2023-08-08T10:49:21;8.05;;;7.85;;
12800;SDS011;6464;42.494;27.470;2023-08-08T10:51:49;7.63;;;7.43;;
12800;SDS011;6464;42.494;27.470;2023-08-08T10:54:18;7.60;;;7.40;;
12800;SDS011;6464;42.494;27.470;2023-08-08T10:56:48;7.50;;;7.30;;
12800;SDS011;6464;42.494;27.470;2023-08-08T10:59:17;7.78;;;7.57;;
12800;SDS011;6464;42.494;27.470;2023-08-08T11:01:45;8.00;;;7.80;;
12800;SDS011;6464;42.494;27.470;2023-08-08T11:04:14;8.10;;;7.90;;
12800;SDS011;6464;42.494;27.470;2023-08-08T11:06:45;7.72;;;7.53;;
12800;SDS011;6464;42.494;27.470;2023-08-08T11:09:15;7.75;;;7.55;;
12800;SDS011;6464;42.494;27.470;2023-08-08T11:11:43;7.28;;;7.07;;
12800;SDS011;6464;42.494;27.470;2023-08-08T11:14:11;7.28;;;7.07;;
12800;SDS011;6464;42.494;27.470;2023-08-08T11:16:39;7.45;;;7.25;;
12800;SDS011;6464;42.494;27.470;2023-08-08T11:19:07;9.50;;;9.20;;
12800;SDS011;6464;42.494;27.470;2023-08-08T11:21:34;7.93;;;7.72;;
12800;SDS011;6464;42.494;27.470;2023-08-08T11:24:04;7.80;;;7.60;;
12800;SDS011;6464;42.494;27.470;2023-08-08T11:26:32;7.57;;;7.38;;
12800;SDS011;6464;42.494;27.470;2023-08-08T11:29:00;7.50;;;7.30;;
12800;SDS011;6464;42.494;27.470;2023-08-08T11:31:27;7.20;;;7.00;;
12800;SDS011;6464;42.494;27.470;2023-08-08T11:33:55;7.50;;;7.30;;
12800;SDS011;6464;42.494;27.470;2023-08-08T11:36:23;7.53;;;7.32;;
12800;SDS011;6464;42.494;27.470;2023-08-08T11:38:49;7.70;;;7.50;;
12800;SDS011;6464;42.494;27.470;2023-08-08T11:41:19;7.80;;;7.60;;
12800;SDS011;6464;42.494;27.470;2023-08-08T11:43:49;8.20;;;8.00;;
12800;SDS011;6464;42.494;27.470;2023-08-08T11:46:17;8.82;;;8.52;;
12800;SDS011;6464;42.494;27.470;2023-08-08T11:48:46;7.40;;;7.20;;
12800;SDS011;6464;42.494;27.470;2023-08-08T11:51:14;7.32;;;7.13;;
12800;SDS011;6464;42.494;27.470;2023-08-08T11:53:47;7.57;;;7.38;;
12800;SDS011;6464;42.494;27.470;2023-08-08T11:56:15;7.38;;;7.18;;
12800;SDS011;6464;42.494;27.470;2023-08-08T11:58:44;7.10;;;6.90;;
12800;SDS011;6464;42.494;27.470;2023-08-08T12:01:11;7.05;;;6.85;;
12800;SDS011;6464;42.494;27.470;2023-08-08T12:03:39;7.50;;;7.30;;
12800;SDS011;6464;42.494;27.470;2023-08-08T12:06:11;7.50;;;7.30;;
12800;SDS011;6464;42.494;27.470;2023-08-08T12:08:40;7.30;;;7.10;;
12800;SDS011;6464;42.494;27.470;2023-08-08T12:11:08;7.10;;;6.90;;
12800;SDS011;6464;42.494;27.470;2023-08-08T12:13:36;7.32;;;7.13;;
12800;SDS011;6464;42.494;27.470;2023-08-08T12:16:06;7.25;;;7.05;;
12800;SDS011;6464;42.494;27.470;2023-08-08T12:18:35;7.20;;;7.00;;
12800;SDS011;6464;42.494;27.470;2023-08-08T12:21:04;7.50;;;7.30;;
12800;SDS011;6464;42.494;27.470;2023-08-08T12:23:32;7.40;;;7.20;;
12800;SDS011;6464;42.494;27.470;2023-08-08T12:26:02;7.43;;;7.22;;
12800;SDS011;6464;42.494;27.470;2023-08-08T12:28:30;7.30;;;7.10;;
12800;SDS011;6464;42.494;27.470;2023-08-08T12:30:57;7.88;;;7.68;;
12800;SDS011;6464;42.494;27.470;2023-08-08T12:33:26;7.65;;;7.45;;
12800;SDS011;6464;42.494;27.470;2023-08-08T12:35:53;8.40;;;8.13;;
12800;SDS011;6464;42.494;27.470;2023-08-08T12:38:20;7.50;;;7.30;;
12800;SDS011;6464;42.494;27.470;2023-08-08T12:40:47;7.60;;;7.40;;
12800;SDS011;6464;42.494;27.470;2023-08-08T12:43:14;7.60;;;7.40;;
12800;SDS011;6464;42.494;27.470;2023-08-08T12:45:43;7.50;;;7.30;;
12800;SDS011;6464;42.494;27.470;2023-08-08T12:48:10;7.68;;;7.47;;
12800;SDS011;6464;42.494;27.470;2023-08-08T12:50:38;7.32;;;7.13;;
12800;SDS011;6464;42.494;27.470;2023-08-08T12:53:06;7.60;;;7.40;;
12800;SDS011;6464;42.494;27.470;2023-08-08T12:55:33;7.45;;;7.25;;
12800;SDS011;6464;42.494;27.470;2023-08-08T12:58:01;7.32;;;7.13;;
12800;SDS011;6464;42.494;27.470;2023-08-08T13:00:28;7.30;;;7.10;;
12800;SDS011;6464;42.494;27.470;2023-08-08T13:02:55;7.30;;;7.10;;
12800;SDS011;6464;42.494;27.470;2023-08-08T13:05:23;7.40;;;7.20;;
12800;SDS011;6464;42.494;27.470;2023-08-08T13:07:51;7.30;;;7.10;;
12800;SDS011;6464;42.494;27.470;2023-08-08T13:10:18;7.32;;;7.13;;
12800;SDS011;6464;42.494;27.470;2023-08-08T13:12:45;7.18;;;6.97;;
12800;SDS011;6464;42.494;27.470;2023-08-08T13:15:12;7.20;;;7.00;;
12800;SDS011;6464;42.494;27.470;2023-08-08T13:17:40;7.38;;;7.18;;
12800;SDS011;6464;42.494;27.470;2023-08-08T13:20:07;7.30;;;7.10;;
12800;SDS011;6464;42.494;27.470;2023-08-08T13:22:35;7.65;;;7.45;;
12800;SDS011;6464;42.494;27.470;2023-08-08T13:25:03;7.60;;;7.40;;
12800;SDS011;6464;42.494;27.470;2023-08-08T13:27:32;7.90;;;7.70;;
12800;SDS011;6464;42.494;27.470;2023-08-08T13:30:00;7.45;;;7.25;;
12800;SDS011;6464;42.494;27.470;2023-08-08T13:32:27;7.60;;;7.40;;
12800;SDS011;6464;42.494;27.470;2023-08-08T13:34:54;7.55;;;7.35;;
12800;SDS011;6464;42.494;27.470;2023-08-08T13:37:21;7.53;;;7.32;;
12800;SDS011;6464;42.494;27.470;2023-08-08T13:39:48;7.50;;;7.30;;
12800;SDS011;6464;42.494;27.470;2023-08-08T13:42:16;7.85;;;7.65;;
12800;SDS011;6464;42.494;27.470;2023-08-08T13:44:43;8.10;;;7.90;;
12800;SDS011;6464;42.494;27.470;2023-08-08T13:47:10;8.00;;;7.80;;
12800;SDS011;6464;42.494;27.470;2023-08-08T13:49:37;8.10;;;7.90;;
12800;SDS011;6464;42.494;27.470;2023-08-08T13:52:04;7.60;;;7.40;;
12800;SDS011;6464;42.494;27.470;2023-08-08T13:54:31;7.80;;;7.60;;
12800;SDS011;6464;42.494;27.470;2023-08-08T13:56:58;7.70;;;7.50;;
12800;SDS011;6464;42.494;27.470;2023-08-08T13:59:27;8.25;;;8.02;;
12800;SDS011;6464;42.494;27.470;2023-08-08T14:01:54;9.00;;;8.70;;
12800;SDS011;6464;42.494;27.470;2023-08-08T14:04:20;9.20;;;8.90;;
12800;SDS011;6464;42.494;27.470;2023-08-08T14:06:47;7.47;;;7.28;;
12800;SDS011;6464;42.494;27.470;2023-08-08T14:09:14;7.60;;;7.40;;
12800;SDS011;6464;42.494;27.470;2023-08-08T14:11:42;7.60;;;7.40;;
12800;SDS011;6464;42.494;27.470;2023-08-08T14:14:09;7.43;;;7.22;;
12800;SDS011;6464;42.494;27.470;2023-08-08T14:16:38;7.82;;;7.63;;
12800;SDS011;6464;42.494;27.470;2023-08-08T14:19:04;7.80;;;7.60;;
12800;SDS011;6464;42.494;27.470;2023-08-08T14:21:31;7.75;;;7.55;;
12800;SDS011;6464;42.494;27.470;2023-08-08T14:23:58;8.07;;;7.88;;
12800;SDS011;6464;42.494;27.470;2023-08-08T14:26:25;8.90;;;8.60;;
12800;SDS011;6464;42.494;27.470;2023-08-08T14:28:52;8.80;;;8.50;;
12800;SDS011;6464;42.494;27.470;2023-08-08T14:31:19;7.80;;;7.60;;
12800;SDS011;6464;42.494;27.470;2023-08-08T14:33:47;7.80;;;7.60;;
12800;SDS011;6464;42.494;27.470;2023-08-08T14:36:14;7.95;;;7.75;;
12800;SDS011;6464;42.494;27.470;2023-08-08T14:38:41;7.65;;;7.45;;
12800;SDS011;6464;42.494;27.470;2023-08-08T14:41:08;7.70;;;7.50;;
12800;SDS011;6464;42.494;27.470;2023-08-08T14:43:35;7.80;;;7.60;;
12800;SDS011;6464;42.494;27.470;2023-08-08T14:46:02;7.60;;;7.40;;
12800;SDS011;6464;42.494;27.470;2023-08-08T14:48:29;7.72;;;7.53;;
12800;SDS011;6464;42.494;27.470;2023-08-08T14:50:57;8.10;;;7.90;;
12800;SDS011;6464;42.494;27.470;2023-08-08T14:53:26;7.45;;;7.25;;
12800;SDS011;6464;42.494;27.470;2023-08-08T14:55:52;7.63;;;7.43;;
12800;SDS011;6464;42.494;27.470;2023-08-08T14:58:19;8.00;;;7.80;;
12800;SDS011;6464;42.494;27.470;2023-08-08T15:00:46;7.93;;;7.72;;
12800;SDS011;6464;42.494;27.470;2023-08-08T15:03:13;7.93;;;7.72;;
12800;SDS011;6464;42.494;27.470;2023-08-08T15:05:42;8.07;;;7.88;;
12800;SDS011;6464;42.494;27.470;2023-08-08T15:08:12;8.10;;;7.90;;
12800;SDS011;6464;42.494;27.470;2023-08-08T15:10:39;8.10;;;7.90;;
12800;SDS011;6464;42.494;27.470;2023-08-08T15:13:05;7.85;;;7.65;;
12800;SDS011;6464;42.494;27.470;2023-08-08T15:15:32;8.00;;;7.80;;
12800;SDS011;6464;42.494;27.470;2023-08-08T15:17:59;8.20;;;7.90;;
12800;SDS011;6464;42.494;27.470;2023-08-08T15:20:26;7.97;;;7.78;;
12800;SDS011;6464;42.494;27.470;2023-08-08T15:22:53;8.02;;;7.82;;
12800;SDS011;6464;42.494;27.470;2023-08-08T15:25:21;8.40;;;8.10;;
12800;SDS011;6464;42.494;27.470;2023-08-08T15:27:48;8.77;;;8.48;;
12800;SDS011;6464;42.494;27.470;2023-08-08T15:30:15;8.35;;;8.07;;
12800;SDS011;6464;42.494;27.470;2023-08-08T15:32:42;7.82;;;7.63;;
12800;SDS011;6464;42.494;27.470;2023-08-08T15:35:09;7.78;;;7.57;;
12800;SDS011;6464;42.494;27.470;2023-08-08T15:37:35;7.65;;;7.45;;
12800;SDS011;6464;42.494;27.470;2023-08-08T15:40:04;8.05;;;7.85;;
12800;SDS011;6464;42.494;27.470;2023-08-08T15:42:33;8.43;;;8.13;;
12800;SDS011;6464;42.494;27.470;2023-08-08T15:45:00;8.27;;;8.02;;
12800;SDS011;6464;42.494;27.470;2023-08-08T15:47:27;7.80;;;7.60;;
12800;SDS011;6464;42.494;27.470;2023-08-08T15:49:53;8.50;;;8.20;;
12800;SDS011;6464;42.494;27.470;2023-08-08T15:52:20;8.70;;;8.40;;
12800;SDS011;6464;42.494;27.470;2023-08-08T15:54:47;8.93;;;8.63;;
12800;SDS011;6464;42.494;27.470;2023-08-08T15:57:14;8.20;;;8.00;;
12800;SDS011;6464;42.494;27.470;2023-08-08T15:59:43;7.30;;;7.10;;
12800;SDS011;6464;42.494;27.470;2023-08-08T16:02:10;7.70;;;7.50;;
12800;SDS011;6464;42.494;27.470;2023-08-08T16:04:37;7.80;;;7.60;;
12800;SDS011;6464;42.494;27.470;2023-08-08T16:07:04;7.70;;;7.50;;
12800;SDS011;6464;42.494;27.470;2023-08-08T16:09:31;7.60;;;7.40;;
12800;SDS011;6464;42.494;27.470;2023-08-08T16:11:58;7.93;;;7.72;;
12800;SDS011;6464;42.494;27.470;2023-08-08T16:14:25;7.80;;;7.60;;
12800;SDS011;6464;42.494;27.470;2023-08-08T16:16:54;7.47;;;7.28;;
12800;SDS011;6464;42.494;27.470;2023-08-08T16:19:21;7.40;;;7.20;;
12800;SDS011;6464;42.494;27.470;2023-08-08T16:21:48;7.13;;;6.93;;
12800;SDS011;6464;42.494;27.470;2023-08-08T16:24:15;7.10;;;6.90;;
12800;SDS011;6464;42.494;27.470;2023-08-08T16:26:42;7.10;;;6.90;;
12800;SDS011;6464;42.494;27.470;2023-08-08T16:29:09;6.90;;;6.70;;
12800;SDS011;6464;42.494;27.470;2023-08-08T16:31:36;7.10;;;6.90;;
12800;SDS011;6464;42.494;27.470;2023-08-08T16:34:05;7.20;;;7.00;;
12800;SDS011;6464;42.494;27.470;2023-08-08T16:36:33;7.00;;;6.80;;
12800;SDS011;6464;42.494;27.470;2023-08-08T16:39:00;6.90;;;6.70;;
12800;SDS011;6464;42.494;27.470;2023-08-08T16:41:28;6.70;;;6.50;;
12800;SDS011;6464;42.494;27.470;2023-08-08T16:43:59;6.78;;;6.57;;
12800;SDS011;6464;42.494;27.470;2023-08-08T16:46:27;6.70;;;6.50;;
12800;SDS011;6464;42.494;27.470;2023-08-08T16:48:54;6.85;;;6.65;;
12800;SDS011;6464;42.494;27.470;2023-08-08T16:51:23;6.82;;;6.63;;
12800;SDS011;6464;42.494;27.470;2023-08-08T16:53:50;6.60;;;6.40;;
12800;SDS011;6464;42.494;27.470;2023-08-08T16:56:17;6.60;;;6.40;;
12800;SDS011;6464;42.494;27.470;2023-08-08T16:58:44;6.60;;;6.40;;
12800;SDS011;6464;42.494;27.470;2023-08-08T17:01:11;6.70;;;6.50;;
12800;SDS011;6464;42.494;27.470;2023-08-08T17:03:38;6.50;;;6.30;;
12800;SDS011;6464;42.494;27.470;2023-08-08T17:06:05;6.78;;;6.57;;
12800;SDS011;6464;42.494;27.470;2023-08-08T17:08:34;6.68;;;6.47;;
12800;SDS011;6464;42.494;27.470;2023-08-08T17:11:01;6.75;;;6.55;;
12800;SDS011;6464;42.494;27.470;2023-08-08T17:13:29;6.40;;;6.20;;
12800;SDS011;6464;42.494;27.470;2023-08-08T17:15:56;6.40;;;6.20;;
12800;SDS011;6464;42.494;27.470;2023-08-08T17:18:23;6.43;;;6.22;;
12800;SDS011;6464;42.494;27.470;2023-08-08T17:20:50;6.50;;;6.30;;
12800;SDS011;6464;42.494;27.470;2023-08-08T17:23:16;6.10;;;6.00;;
12800;SDS011;6464;42.494;27.470;2023-08-08T17:25:45;6.30;;;6.10;;
12800;SDS011;6464;42.494;27.470;2023-08-08T17:28:11;6.28;;;6.07;;
12800;SDS011;6464;42.494;27.470;2023-08-08T17:30:38;6.40;;;6.20;;
12800;SDS011;6464;42.494;27.470;2023-08-08T17:33:05;5.90;;;5.80;;
12800;SDS011;6464;42.494;27.470;2023-08-08T17:35:32;6.00;;;5.90;;
12800;SDS011;6464;42.494;27.470;2023-08-08T17:38:00;5.78;;;5.68;;
12800;SDS011;6464;42.494;27.470;2023-08-08T17:40:27;5.40;;;5.30;;
12800;SDS011;6464;42.494;27.470;2023-08-08T17:42:55;5.35;;;5.25;;
12800;SDS011;6464;42.494;27.470;2023-08-08T17:45:22;4.95;;;4.85;;
12800;SDS011;6464;42.494;27.470;2023-08-08T17:47:49;4.93;;;4.82;;
12800;SDS011;6464;42.494;27.470;2023-08-08T17:50:17;4.75;;;4.65;;
12800;SDS011;6464;42.494;27.470;2023-08-08T17:52:47;4.60;;;4.50;;
12800;SDS011;6464;42.494;27.470;2023-08-08T17:55:14;4.60;;;4.50;;
12800;SDS011;6464;42.494;27.470;2023-08-08T17:57:44;4.90;;;4.80;;
12800;SDS011;6464;42.494;27.470;2023-08-08T18:00:13;5.10;;;5.00;;
12800;SDS011;6464;42.494;27.470;2023-08-08T18:02:40;5.10;;;5.00;;
12800;SDS011;6464;42.494;27.470;2023-08-08T18:05:07;4.72;;;4.63;;
12800;SDS011;6464;42.494;27.470;2023-08-08T18:07:34;4.40;;;4.30;;
12800;SDS011;6464;42.494;27.470;2023-08-08T18:10:02;4.18;;;4.07;;
12800;SDS011;6464;42.494;27.470;2023-08-08T18:12:29;4.30;;;4.20;;
12800;SDS011;6464;42.494;27.470;2023-08-08T18:14:56;4.00;;;3.90;;
12800;SDS011;6464;42.494;27.470;2023-08-08T18:17:24;4.25;;;4.15;;
12800;SDS011;6464;42.494;27.470;2023-08-08T18:19:51;4.60;;;4.50;;
12800;SDS011;6464;42.494;27.470;2023-08-08T18:22:20;4.82;;;4.72;;
12800;SDS011;6464;42.494;27.470;2023-08-08T18:24:47;4.55;;;4.45;;
12800;SDS011;6464;42.494;27.470;2023-08-08T18:27:14;4.50;;;4.40;;
12800;SDS011;6464;42.494;27.470;2023-08-08T18:29:41;4.63;;;4.53;;
12800;SDS011;6464;42.494;27.470;2023-08-08T18:32:09;4.50;;;4.40;;
12800;SDS011;6464;42.494;27.470;2023-08-08T18:34:40;4.30;;;4.20;;
12800;SDS011;6464;42.494;27.470;2023-08-08T18:37:07;4.40;;;4.30;;
12800;SDS011;6464;42.494;27.470;2023-08-08T18:39:34;4.40;;;4.30;;
12800;SDS011;6464;42.494;27.470;2023-08-08T18:42:02;4.50;;;4.40;;
12800;SDS011;6464;42.494;27.470;2023-08-08T18:44:29;4.20;;;4.10;;
12800;SDS011;6464;42.494;27.470;2023-08-08T18:46:56;4.60;;;4.50;;
12800;SDS011;6464;42.494;27.470;2023-08-08T18:49:23;4.38;;;4.28;;
12800;SDS011;6464;42.494;27.470;2023-08-08T18:51:52;4.65;;;4.55;;
12800;SDS011;6464;42.494;27.470;2023-08-08T18:54:19;4.70;;;4.60;;